createdAt,value
2023-08-27T00:01:47.341Z,5.43
2023-08-27T00:04:15.101Z,9.43
2023-08-27T00:06:42.684Z,20.23
2023-08-27T00:09:10.197Z,11.97
2023-08-27T00:11:38.109Z,6.83
2023-08-27T00:14:05.764Z,8.10
2023-08-27T00:16:34.269Z,6.67
2023-08-27T00:19:01.867Z,6.23
2023-08-27T00:21:29.394Z,6.90
2023-08-27T00:23:56.964Z,7.67
2023-08-27T00:26:24.719Z,10.67
2023-08-27T00:28:52.233Z,10.43
2023-08-27T00:31:19.773Z,6.00
2023-08-27T00:33:47.396Z,7.10
2023-08-27T00:36:16.194Z,6.00
2023-08-27T00:38:43.776Z,8.77
2023-08-27T00:41:11.576Z,7.43
2023-08-27T00:43:39.310Z,6.83
2023-08-27T00:46:07.644Z,6.53
2023-08-27T00:48:35.506Z,6.87
2023-08-27T00:51:04.689Z,6.40
2023-08-27T00:53:32.927Z,5.90
2023-08-27T00:56:00.574Z,8.13
2023-08-27T00:58:28.200Z,7.60
2023-08-27T01:00:55.763Z,7.13
2023-08-27T01:03:23.539Z,6.70
2023-08-27T01:05:51.639Z,6.70
2023-08-27T01:08:52.848Z,7.00
2023-08-27T01:11:49.961Z,7.70
2023-08-27T01:14:18.945Z,7.43
2023-08-27T01:16:47.942Z,7.17
2023-08-27T01:19:17.376Z,6.90
2023-08-27T01:21:45.978Z,7.17
2023-08-27T01:24:13.621Z,11.90
2023-08-27T01:26:54.463Z,14.33
2023-08-27T01:29:37.354Z,16.60
2023-08-27T01:32:35.720Z,10.63
2023-08-27T01:35:05.148Z,12.40
2023-08-27T01:37:33.488Z,9.07
2023-08-27T01:40:07.369Z,10.10
2023-08-27T01:42:36.929Z,9.30
2023-08-27T01:45:10.912Z,8.90
2023-08-27T01:47:38.518Z,7.97
2023-08-27T01:50:06.955Z,8.67
2023-08-27T01:52:37.339Z,7.30
2023-08-27T01:55:07.056Z,8.60
2023-08-27T01:57:34.962Z,12.60
2023-08-27T02:00:02.665Z,7.97
2023-08-27T02:02:30.491Z,8.20
2023-08-27T02:04:58.178Z,7.73
2023-08-27T02:07:26.123Z,7.37
2023-08-27T02:09:53.712Z,8.13
2023-08-27T02:12:21.232Z,7.83
2023-08-27T02:14:48.937Z,7.20
2023-08-27T02:17:16.529Z,7.40
2023-08-27T02:19:44.167Z,7.23
2023-08-27T02:22:11.735Z,7.07
2023-08-27T02:24:39.321Z,7.53
2023-08-27T02:27:06.909Z,7.20
2023-08-27T02:29:35.386Z,10.20
2023-08-27T02:32:03.884Z,8.80
2023-08-27T02:34:31.590Z,7.97
2023-08-27T02:36:59.228Z,8.73
2023-08-27T02:39:26.752Z,9.63
2023-08-27T02:41:54.266Z,10.07
2023-08-27T02:44:21.902Z,8.60
2023-08-27T02:46:49.511Z,7.73
2023-08-27T02:49:17.176Z,8.57
2023-08-27T02:51:44.812Z,7.70
2023-08-27T02:54:12.476Z,8.70
2023-08-27T02:56:40.038Z,9.03
2023-08-27T02:59:07.692Z,8.83
2023-08-27T03:01:35.296Z,8.03
2023-08-27T03:04:04.420Z,9.33
2023-08-27T03:06:32.186Z,9.47
2023-08-27T03:08:59.732Z,9.63
2023-08-27T03:11:27.314Z,9.97
2023-08-27T03:13:54.916Z,9.27
2023-08-27T03:16:22.441Z,9.43
2023-08-27T03:18:50.191Z,9.73
2023-08-27T03:21:17.792Z,9.93
2023-08-27T03:23:45.293Z,8.63
2023-08-27T03:26:12.878Z,8.67
2023-08-27T03:28:41.055Z,7.97
2023-08-27T03:31:09.396Z,7.93
2023-08-27T03:33:37.112Z,10.27
2023-08-27T03:36:05.121Z,9.03
2023-08-27T03:38:33.272Z,8.77
2023-08-27T03:41:00.911Z,11.03
2023-08-27T03:43:28.495Z,12.20
2023-08-27T03:45:56.136Z,10.83
2023-08-27T03:48:23.708Z,9.40
2023-08-27T03:50:51.212Z,8.77
2023-08-27T03:53:18.801Z,9.43
2023-08-27T03:55:47.272Z,9.40
2023-08-27T03:58:14.849Z,11.20
2023-08-27T04:00:42.508Z,9.63
2023-08-27T04:03:10.079Z,9.23
2023-08-27T04:05:39.767Z,10.47
2023-08-27T04:08:08.084Z,8.40
2023-08-27T04:10:35.620Z,8.73
2023-08-27T04:13:03.406Z,9.40
2023-08-27T04:15:31.114Z,10.43
2023-08-27T04:17:58.971Z,10.23
2023-08-27T04:20:26.543Z,10.03
2023-08-27T04:22:54.061Z,10.00
2023-08-27T04:25:21.645Z,10.07
2023-08-27T04:27:49.301Z,10.00
2023-08-27T04:30:17.466Z,11.00
2023-08-27T04:32:45.085Z,10.43
2023-08-27T04:35:12.754Z,12.27
2023-08-27T04:37:40.372Z,11.33
2023-08-27T04:40:10.189Z,10.30
2023-08-27T04:42:37.744Z,11.40
2023-08-27T04:45:06.009Z,11.50
2023-08-27T04:47:33.624Z,11.37
2023-08-27T04:50:01.348Z,11.87
2023-08-27T04:52:32.492Z,12.00
2023-08-27T04:55:00.656Z,11.13
2023-08-27T04:57:28.836Z,11.80
2023-08-27T04:59:56.563Z,10.77
2023-08-27T05:02:24.300Z,11.17
2023-08-27T05:04:52.548Z,12.30
2023-08-27T05:07:20.159Z,11.23
2023-08-27T05:09:47.901Z,11.17
2023-08-27T05:12:15.683Z,13.10
2023-08-27T05:14:43.388Z,13.57
2023-08-27T05:17:11.890Z,11.43
2023-08-27T05:19:39.705Z,11.27
2023-08-27T05:22:07.393Z,11.07
2023-08-27T05:24:36.165Z,11.17
2023-08-27T05:27:04.574Z,11.53
2023-08-27T05:29:32.205Z,11.03
2023-08-27T05:31:59.719Z,11.23
2023-08-27T05:34:28.007Z,11.73
2023-08-27T05:36:55.609Z,10.90
2023-08-27T05:39:23.393Z,11.63
2023-08-27T05:41:51.034Z,11.10
2023-08-27T05:44:19.234Z,10.40
2023-08-27T05:46:46.905Z,11.77
2023-08-27T05:49:14.538Z,12.30
2023-08-27T05:51:42.481Z,11.03
2023-08-27T05:54:10.037Z,11.93
2023-08-27T05:56:37.593Z,11.77
2023-08-27T05:59:05.485Z,12.10
2023-08-27T06:01:33.081Z,11.27
2023-08-27T06:04:00.937Z,12.77
2023-08-27T06:06:28.495Z,10.63
2023-08-27T06:08:55.985Z,10.00
2023-08-27T06:11:23.564Z,10.50
2023-08-27T06:13:51.090Z,11.87
2023-08-27T06:16:18.839Z,8.63
2023-08-27T06:18:46.385Z,10.03
2023-08-27T06:21:14.245Z,10.53
2023-08-27T06:23:42.680Z,10.67
2023-08-27T06:26:10.260Z,10.23
2023-08-27T06:28:37.878Z,9.50
2023-08-27T06:31:05.542Z,9.13
2023-08-27T06:33:33.123Z,9.07
2023-08-27T06:36:00.833Z,8.83
2023-08-27T06:38:28.344Z,8.53
2023-08-27T06:40:56.157Z,8.43
2023-08-27T06:43:23.903Z,7.00
2023-08-27T06:45:51.885Z,7.57
2023-08-27T06:48:19.570Z,7.70
2023-08-27T06:50:47.181Z,6.47
2023-08-27T06:53:14.715Z,7.47
2023-08-27T06:55:42.436Z,9.20
2023-08-27T06:58:09.949Z,7.57
2023-08-27T07:00:41.373Z,6.70
2023-08-27T07:03:09.013Z,6.85
2023-08-27T07:05:36.706Z,7.28
2023-08-27T07:08:05.576Z,6.78
2023-08-27T07:10:33.240Z,7.78
2023-08-27T07:13:00.837Z,6.90
2023-08-27T07:15:28.488Z,7.60
2023-08-27T07:17:56.146Z,7.22
2023-08-27T07:20:24.827Z,8.20
2023-08-27T07:22:52.369Z,8.70
2023-08-27T07:25:22.707Z,8.27
2023-08-27T07:27:50.527Z,7.40
2023-08-27T07:30:18.115Z,7.93
2023-08-27T07:32:45.722Z,7.30
2023-08-27T07:35:13.372Z,6.13
2023-08-27T07:37:40.924Z,6.60
2023-08-27T07:40:10.942Z,6.03
2023-08-27T07:42:39.399Z,4.85
2023-08-27T07:45:08.274Z,3.58
2023-08-27T07:47:35.837Z,5.97
2023-08-27T07:50:03.868Z,3.20
2023-08-27T07:52:31.454Z,4.55
2023-08-27T07:54:59.045Z,3.40
2023-08-27T07:57:27.034Z,3.75
2023-08-27T07:59:55.497Z,6.25
2023-08-27T08:02:23.105Z,3.55
2023-08-27T08:04:50.758Z,3.47
2023-08-27T08:07:18.314Z,3.60
2023-08-27T08:09:45.856Z,3.53
2023-08-27T08:12:14.001Z,3.45
2023-08-27T08:14:42.106Z,2.92
2023-08-27T08:17:11.264Z,5.72
2023-08-27T08:19:39.248Z,3.70
2023-08-27T08:22:07.187Z,4.32
2023-08-27T08:24:34.772Z,4.22
2023-08-27T08:27:04.132Z,3.85
2023-08-27T08:29:35.148Z,2.72
2023-08-27T08:32:03.267Z,3.15
2023-08-27T08:34:30.907Z,4.10
2023-08-27T08:36:58.693Z,3.70
2023-08-27T08:39:26.519Z,4.22
2023-08-27T08:42:09.341Z,5.05
2023-08-27T08:44:48.750Z,3.88
2023-08-27T08:47:20.906Z,3.78
2023-08-27T08:49:54.124Z,3.47
2023-08-27T08:52:27.291Z,3.50
2023-08-27T08:54:56.737Z,4.13
2023-08-27T08:57:26.726Z,3.70
2023-08-27T08:59:55.617Z,3.50
2023-08-27T09:02:23.857Z,5.63
2023-08-27T09:04:52.494Z,4.85
2023-08-27T09:07:20.483Z,3.72
2023-08-27T09:09:49.949Z,3.67
2023-08-27T09:12:18.284Z,3.22
2023-08-27T09:14:46.029Z,4.90
2023-08-27T09:17:18.280Z,3.75
2023-08-27T09:19:47.859Z,4.20
2023-08-27T09:22:16.171Z,3.05
2023-08-27T09:24:43.814Z,4.03
2023-08-27T09:27:13.654Z,3.67
2023-08-27T09:29:43.504Z,2.97
2023-08-27T09:32:24.928Z,3.92
2023-08-27T09:35:03.741Z,3.88
2023-08-27T09:37:40.698Z,3.35
2023-08-27T09:40:10.816Z,3.83
2023-08-27T09:42:40.207Z,3.53
2023-08-27T09:45:08.650Z,4.22
2023-08-27T09:47:39.741Z,3.28
2023-08-27T09:50:15.686Z,3.13
2023-08-27T09:52:44.157Z,2.95
2023-08-27T09:55:15.747Z,3.92
2023-08-27T09:57:51.376Z,4.20
2023-08-27T10:00:19.734Z,5.60
2023-08-27T10:02:53.139Z,3.80
2023-08-27T10:05:30.102Z,4.82
2023-08-27T10:08:04.337Z,4.70
2023-08-27T10:10:37.740Z,4.00
2023-08-27T10:13:05.894Z,4.00
2023-08-27T10:15:37.025Z,3.85
2023-08-27T10:18:07.115Z,3.83
2023-08-27T10:20:34.968Z,4.57
2023-08-27T10:23:04.223Z,4.22
2023-08-27T10:25:34.389Z,2.80
2023-08-27T10:28:03.014Z,4.85
2023-08-27T10:30:34.186Z,4.00
2023-08-27T10:33:01.764Z,3.88
2023-08-27T10:35:30.212Z,3.70
2023-08-27T10:37:59.145Z,6.07
2023-08-27T10:40:28.536Z,3.28
2023-08-27T10:43:19.182Z,3.50
2023-08-27T10:45:48.605Z,3.90
2023-08-27T10:48:21.669Z,3.00
2023-08-27T10:51:00.126Z,4.90
2023-08-27T10:54:00.998Z,5.40
2023-08-27T10:56:40.775Z,6.00
2023-08-27T10:59:26.678Z,5.93
2023-08-27T11:02:11.361Z,6.72
2023-08-27T11:04:43.089Z,6.57
2023-08-27T11:07:20.773Z,6.03
2023-08-27T11:09:57.553Z,6.65
2023-08-27T11:12:29.641Z,6.28
2023-08-27T11:15:11.475Z,7.38
2023-08-27T11:17:40.348Z,6.97
2023-08-27T11:20:24.979Z,7.10
2023-08-27T11:23:03.720Z,7.82
2023-08-27T11:25:33.173Z,7.43
2023-08-27T11:28:02.327Z,7.30
2023-08-27T11:30:31.258Z,8.05
2023-08-27T11:32:59.368Z,6.82
2023-08-27T11:35:30.694Z,8.30
2023-08-27T11:37:59.155Z,8.18
2023-08-27T11:40:28.217Z,10.00
2023-08-27T11:42:59.211Z,7.80
2023-08-27T11:45:40.638Z,9.45
2023-08-27T11:48:10.062Z,7.32
2023-08-27T11:50:41.792Z,9.23
2023-08-27T11:53:09.373Z,8.27
2023-08-27T11:55:37.481Z,8.43
2023-08-27T11:58:08.014Z,7.38
2023-08-27T12:00:35.607Z,7.78
2023-08-27T12:03:05.443Z,7.10
2023-08-27T12:05:34.636Z,7.32
2023-08-27T12:08:11.661Z,6.88
2023-08-27T12:10:46.305Z,6.80
2023-08-27T12:13:15.142Z,7.05
2023-08-27T12:15:43.667Z,6.18
2023-08-27T12:18:11.385Z,7.32
2023-08-27T12:20:38.925Z,5.95
2023-08-27T12:23:17.103Z,6.70
2023-08-27T12:25:55.399Z,7.20
2023-08-27T12:28:23.231Z,7.10
2023-08-27T12:30:54.615Z,7.25
2023-08-27T12:33:43.067Z,7.93
2023-08-27T12:36:10.940Z,6.65
2023-08-27T12:38:38.574Z,15.02
2023-08-27T12:41:06.168Z,7.80
2023-08-27T12:43:33.687Z,8.00
2023-08-27T12:46:01.467Z,7.93
2023-08-27T12:48:29.032Z,8.55
2023-08-27T12:50:57.428Z,11.13
2023-08-27T12:53:24.947Z,8.95
2023-08-27T12:55:52.572Z,9.43
2023-08-27T12:58:20.183Z,9.27
2023-08-27T13:00:48.120Z,8.85
2023-08-27T13:03:15.688Z,9.43
2023-08-27T13:05:43.353Z,9.77
2023-08-27T13:08:12.566Z,8.80
2023-08-27T13:10:42.014Z,9.52
2023-08-27T13:13:10.060Z,7.97
2023-08-27T13:15:37.632Z,8.65
2023-08-27T13:18:06.036Z,9.70
2023-08-27T13:20:33.740Z,8.00
2023-08-27T13:23:01.384Z,8.52
2023-08-27T13:25:28.999Z,9.75
2023-08-27T13:27:58.103Z,8.07
2023-08-27T13:30:25.866Z,9.30
2023-08-27T13:32:53.788Z,8.73
2023-08-27T13:35:21.826Z,8.88
2023-08-27T13:37:49.362Z,9.30
2023-08-27T13:40:17.461Z,8.80
2023-08-27T13:42:46.495Z,9.80
2023-08-27T13:45:14.198Z,9.18
2023-08-27T13:47:41.772Z,9.02
2023-08-27T13:50:09.983Z,9.18
2023-08-27T13:52:37.560Z,10.60
2023-08-27T13:55:05.855Z,9.65
2023-08-27T13:57:33.992Z,9.35
2023-08-27T14:00:01.561Z,9.63
2023-08-27T14:02:29.216Z,10.00
2023-08-27T14:04:56.787Z,9.82
2023-08-27T14:07:24.654Z,9.77
2023-08-27T14:09:52.490Z,11.88
2023-08-27T14:12:20.168Z,11.20
2023-08-27T14:14:48.025Z,11.23
2023-08-27T14:17:17.855Z,10.55
2023-08-27T14:19:45.476Z,9.43
2023-08-27T14:22:13.024Z,9.38
2023-08-27T14:24:41.258Z,10.00
2023-08-27T14:27:08.841Z,10.73
2023-08-27T14:29:36.404Z,10.18
2023-08-27T14:32:04.945Z,10.48
2023-08-27T14:34:32.532Z,11.40
2023-08-27T14:37:00.874Z,10.43
2023-08-27T14:39:28.984Z,10.88
2023-08-27T14:41:56.672Z,10.52
2023-08-27T14:44:24.338Z,11.48
2023-08-27T14:46:51.906Z,11.45
2023-08-27T14:49:19.494Z,10.98
2023-08-27T14:51:47.049Z,11.85
2023-08-27T14:54:14.587Z,10.83
2023-08-27T14:56:43.741Z,10.20
2023-08-27T14:59:38.215Z,10.65
2023-08-27T15:02:10.487Z,9.75
2023-08-27T15:04:38.210Z,10.57
2023-08-27T15:07:06.841Z,10.77
2023-08-27T15:09:35.126Z,10.73
2023-08-27T15:12:04.499Z,9.00
2023-08-27T15:14:33.021Z,9.23
2023-08-27T15:17:00.642Z,8.37
2023-08-27T15:19:28.232Z,9.20
2023-08-27T15:21:55.770Z,10.07
2023-08-27T15:24:23.580Z,9.63
2023-08-27T15:26:51.145Z,8.73
2023-08-27T15:29:18.675Z,8.60
2023-08-27T15:31:46.322Z,8.77
2023-08-27T15:34:14.316Z,8.65
2023-08-27T15:36:42.447Z,9.10
2023-08-27T15:39:10.044Z,9.85
2023-08-27T15:41:37.608Z,8.73
2023-08-27T15:44:05.643Z,8.30
2023-08-27T15:46:33.860Z,8.50
2023-08-27T15:49:01.601Z,8.23
2023-08-27T15:51:29.166Z,7.90
2023-08-27T15:53:56.771Z,8.23
2023-08-27T15:56:24.302Z,8.87
2023-08-27T15:58:51.840Z,8.13
2023-08-27T16:01:19.517Z,8.27
2023-08-27T16:03:47.084Z,8.45
2023-08-27T16:06:14.620Z,7.28
2023-08-27T16:08:42.371Z,7.67
2023-08-27T16:11:09.925Z,8.97
2023-08-27T16:13:38.492Z,8.03
2023-08-27T16:16:06.230Z,9.77
2023-08-27T16:18:33.915Z,8.73
2023-08-27T16:21:01.740Z,9.43
2023-08-27T16:23:29.278Z,9.23
2023-08-27T16:25:57.383Z,9.40
2023-08-27T16:28:25.624Z,9.10
2023-08-27T16:30:55.591Z,9.40
2023-08-27T16:33:24.292Z,9.87
2023-08-27T16:35:51.893Z,8.93
2023-08-27T16:38:19.442Z,8.77
2023-08-27T16:40:47.105Z,10.13
2023-08-27T16:43:15.134Z,8.50
2023-08-27T16:45:44.145Z,8.93
2023-08-27T16:48:11.776Z,8.80
2023-08-27T16:50:40.752Z,9.43
2023-08-27T16:53:08.306Z,7.60
2023-08-27T16:55:35.982Z,6.63
2023-08-27T16:58:04.126Z,7.23
2023-08-27T17:00:31.851Z,7.10
2023-08-27T17:03:01.740Z,5.70
2023-08-27T17:05:29.434Z,6.00
2023-08-27T17:07:56.956Z,5.13
2023-08-27T17:10:24.860Z,6.20
2023-08-27T17:12:52.456Z,5.40
2023-08-27T17:15:20.109Z,5.07
2023-08-27T17:17:47.744Z,5.37
2023-08-27T17:20:16.262Z,6.10
2023-08-27T17:22:43.922Z,5.27
2023-08-27T17:25:11.488Z,4.73
2023-08-27T17:27:39.426Z,4.57
2023-08-27T17:30:08.023Z,4.00
2023-08-27T17:32:35.639Z,4.77
2023-08-27T17:35:05.808Z,4.10
2023-08-27T17:37:33.364Z,4.40
2023-08-27T17:40:00.945Z,4.23
2023-08-27T17:42:28.495Z,4.70
2023-08-27T17:44:56.016Z,4.47
2023-08-27T17:47:25.235Z,4.93
2023-08-27T17:49:52.808Z,5.33
2023-08-27T17:52:20.385Z,4.80
2023-08-27T17:54:47.907Z,6.20
2023-08-27T17:57:15.553Z,4.60
2023-08-27T17:59:43.126Z,4.67
2023-08-27T18:02:10.702Z,4.87
2023-08-27T18:04:38.304Z,5.37
2023-08-27T18:07:05.969Z,4.67
2023-08-27T18:09:33.506Z,5.03
2023-08-27T18:12:01.038Z,5.67
2023-08-27T18:14:29.054Z,6.03
2023-08-27T18:16:56.640Z,6.07
2023-08-27T18:19:24.185Z,6.63
2023-08-27T18:21:51.700Z,5.90
2023-08-27T18:24:19.302Z,6.27
2023-08-27T18:26:46.898Z,6.23
2023-08-27T18:29:14.444Z,6.20
2023-08-27T18:31:42.021Z,6.80
2023-08-27T18:34:09.752Z,6.93
2023-08-27T18:36:37.403Z,6.13
2023-08-27T18:39:05.212Z,5.90
2023-08-27T18:41:32.755Z,5.90
2023-08-27T18:44:00.382Z,7.20
2023-08-27T18:46:33.430Z,6.10
2023-08-27T18:49:02.149Z,6.10
2023-08-27T18:51:30.894Z,5.80
2023-08-27T18:53:58.925Z,5.33
2023-08-27T18:56:27.393Z,5.00
2023-08-27T18:58:55.051Z,4.40
2023-08-27T19:01:22.624Z,3.87
2023-08-27T19:03:51.021Z,4.03
2023-08-27T19:06:18.518Z,4.47
2023-08-27T19:08:46.057Z,4.17
2023-08-27T19:11:13.577Z,3.40
2023-08-27T19:13:41.111Z,2.87
2023-08-27T19:16:08.782Z,3.40
2023-08-27T19:18:38.642Z,3.03
2023-08-27T19:21:06.196Z,2.83
2023-08-27T19:23:33.847Z,3.23
2023-08-27T19:26:07.919Z,2.53
2023-08-27T19:28:39.674Z,3.43
2023-08-27T19:31:07.547Z,2.73
2023-08-27T19:33:35.117Z,3.17
2023-08-27T19:36:04.523Z,4.20
2023-08-27T19:38:32.179Z,3.63
2023-08-27T19:41:04.037Z,4.13
2023-08-27T19:43:31.695Z,4.03
2023-08-27T19:46:00.172Z,4.60
2023-08-27T19:48:30.731Z,3.10
2023-08-27T19:50:58.763Z,3.50
2023-08-27T19:53:26.617Z,3.23
2023-08-27T19:55:54.317Z,4.60
2023-08-27T19:58:21.817Z,4.80
2023-08-27T20:00:49.771Z,4.10
2023-08-27T20:03:17.383Z,5.33
2023-08-27T20:05:45.619Z,4.37
2023-08-27T20:08:15.123Z,3.27
2023-08-27T20:10:42.644Z,2.90
2023-08-27T20:13:10.277Z,3.00
2023-08-27T20:15:39.282Z,3.30
2023-08-27T20:18:08.957Z,4.63
2023-08-27T20:20:38.084Z,3.23
2023-08-27T20:23:05.726Z,3.37
2023-08-27T20:25:33.464Z,3.67
2023-08-27T20:28:01.232Z,3.10
2023-08-27T20:30:29.981Z,3.30
2023-08-27T20:32:57.749Z,3.10
2023-08-27T20:35:25.457Z,3.50
2023-08-27T20:37:53.104Z,2.97
2023-08-27T20:40:21.481Z,3.20
2023-08-27T20:42:49.348Z,6.27
2023-08-27T20:45:17.117Z,3.37
2023-08-27T20:47:45.880Z,5.27
2023-08-27T20:50:13.723Z,4.37
2023-08-27T20:52:41.239Z,3.40
2023-08-27T20:55:09.122Z,3.43
2023-08-27T20:57:36.799Z,3.13
2023-08-27T21:00:06.252Z,3.20
2023-08-27T21:02:33.829Z,3.90
2023-08-27T21:05:01.553Z,2.73
2023-08-27T21:07:29.192Z,2.30
2023-08-27T21:09:56.835Z,2.70
2023-08-27T21:12:24.529Z,2.60
2023-08-27T21:14:52.055Z,2.70
2023-08-27T21:17:19.565Z,2.50
2023-08-27T21:19:47.143Z,2.83
2023-08-27T21:22:14.739Z,2.73
2023-08-27T21:24:42.260Z,2.93
2023-08-27T21:27:09.805Z,3.30
2023-08-27T21:29:37.423Z,2.10
2023-08-27T21:32:05.336Z,4.90
2023-08-27T21:34:32.955Z,2.17
2023-08-27T21:37:00.528Z,3.13
2023-08-27T21:39:28.069Z,2.77
2023-08-27T21:41:55.643Z,2.67
2023-08-27T21:44:23.181Z,2.47
2023-08-27T21:46:50.684Z,3.13
2023-08-27T21:49:18.469Z,2.33
2023-08-27T21:51:46.417Z,3.00
2023-08-27T21:54:14.474Z,2.40
2023-08-27T21:56:42.107Z,3.07
2023-08-27T21:59:09.734Z,3.17
2023-08-27T22:01:37.302Z,4.03
2023-08-27T22:04:05.373Z,2.50
2023-08-27T22:06:32.988Z,2.67
2023-08-27T22:09:00.602Z,3.17
2023-08-27T22:11:28.514Z,2.27
2023-08-27T22:13:56.100Z,2.77
2023-08-27T22:16:23.940Z,2.30
2023-08-27T22:18:51.607Z,2.83
2023-08-27T22:21:19.234Z,3.00
2023-08-27T22:23:46.769Z,2.90
2023-08-27T22:26:14.379Z,2.70
2023-08-27T22:28:41.955Z,3.17
2023-08-27T22:31:09.708Z,3.10
2023-08-27T22:33:37.391Z,3.03
2023-08-27T22:36:05.434Z,3.77
2023-08-27T22:38:33.042Z,3.40
2023-08-27T22:41:00.640Z,3.23
2023-08-27T22:43:28.458Z,3.73
2023-08-27T22:45:56.091Z,3.97
2023-08-27T22:48:23.850Z,3.87
2023-08-27T22:50:51.418Z,3.83
2023-08-27T22:53:19.054Z,3.30
2023-08-27T22:55:48.596Z,4.03
2023-08-27T22:58:16.248Z,4.23
2023-08-27T23:00:44.586Z,4.30
2023-08-27T23:03:12.316Z,4.00
2023-08-27T23:05:39.942Z,3.60
2023-08-27T23:08:08.030Z,5.50
2023-08-27T23:10:35.644Z,4.60
2023-08-27T23:13:03.867Z,4.13
2023-08-27T23:15:31.784Z,4.70
2023-08-27T23:17:59.815Z,4.50
2023-08-27T23:20:27.753Z,5.10
2023-08-27T23:22:55.652Z,4.70
2023-08-27T23:25:23.702Z,5.10
2023-08-27T23:27:51.332Z,4.67
2023-08-27T23:30:19.063Z,5.10
2023-08-27T23:32:46.715Z,5.47
2023-08-27T23:35:14.374Z,5.30
2023-08-27T23:37:41.931Z,4.93
2023-08-27T23:40:11.490Z,5.07
2023-08-27T23:42:39.047Z,5.83
2023-08-27T23:45:07.545Z,5.33
2023-08-27T23:47:35.541Z,5.80
2023-08-27T23:50:03.219Z,6.80
2023-08-27T23:52:30.928Z,5.90
2023-08-27T23:54:58.499Z,6.20
2023-08-27T23:57:26.126Z,6.10
2023-08-27T23:59:53.841Z,6.10
